sensor_id;sensor_type;location;lat;lon;timestamp;temperature;humidity
16728;DHT22;8482;54.396;18.590;2023-02-05T00:00:36;3.70;99.90
16728;DHT22;8482;54.396;18.590;2023-02-05T00:03:02;3.70;99.90
16728;DHT22;8482;54.396;18.590;2023-02-05T00:05:28;3.60;99.90
16728;DHT22;8482;54.396;18.590;2023-02-05T00:07:54;3.60;99.90
16728;DHT22;8482;54.396;18.590;2023-02-05T00:10:19;3.60;99.90
16728;DHT22;8482;54.396;18.590;2023-02-05T00:12:45;3.60;99.90
16728;DHT22;8482;54.396;18.590;2023-02-05T00:15:11;3.60;99.90
16728;DHT22;8482;54.396;18.590;2023-02-05T00:17:37;3.50;99.90
16728;DHT22;8482;54.396;18.590;2023-02-05T00:20:04;3.50;99.90
16728;DHT22;8482;54.396;18.590;2023-02-05T00:22:31;3.50;99.90
16728;DHT22;8482;54.396;18.590;2023-02-05T00:24:57;3.50;99.90
16728;DHT22;8482;54.396;18.590;2023-02-05T00:27:23;3.50;99.90
16728;DHT22;8482;54.396;18.590;2023-02-05T00:29:49;3.40;99.90
16728;DHT22;8482;54.396;18.590;2023-02-05T00:32:14;3.40;99.90
16728;DHT22;8482;54.396;18.590;2023-02-05T00:34:40;3.40;99.90
16728;DHT22;8482;54.396;18.590;2023-02-05T00:37:06;3.40;99.90
16728;DHT22;8482;54.396;18.590;2023-02-05T00:39:32;3.40;99.90
16728;DHT22;8482;54.396;18.590;2023-02-05T00:41:58;3.40;99.90
16728;DHT22;8482;54.396;18.590;2023-02-05T00:44:24;3.40;99.90
16728;DHT22;8482;54.396;18.590;2023-02-05T00:46:50;3.30;99.90
16728;DHT22;8482;54.396;18.590;2023-02-05T00:49:16;3.30;99.90
16728;DHT22;8482;54.396;18.590;2023-02-05T00:51:41;3.30;99.90
16728;DHT22;8482;54.396;18.590;2023-02-05T00:54:07;3.30;99.90
16728;DHT22;8482;54.396;18.590;2023-02-05T00:56:33;3.30;99.90
16728;DHT22;8482;54.396;18.590;2023-02-05T00:58:59;3.30;99.90
16728;DHT22;8482;54.396;18.590;2023-02-05T01:01:25;3.20;99.90
16728;DHT22;8482;54.396;18.590;2023-02-05T01:03:51;3.30;99.90
16728;DHT22;8482;54.396;18.590;2023-02-05T01:06:17;3.20;99.90
16728;DHT22;8482;54.396;18.590;2023-02-05T01:08:42;3.20;99.90
16728;DHT22;8482;54.396;18.590;2023-02-05T01:11:09;3.20;99.90
16728;DHT22;8482;54.396;18.590;2023-02-05T01:13:36;3.20;99.90
16728;DHT22;8482;54.396;18.590;2023-02-05T01:16:03;3.20;99.90
16728;DHT22;8482;54.396;18.590;2023-02-05T01:18:29;3.20;99.90
16728;DHT22;8482;54.396;18.590;2023-02-05T01:20:55;3.20;99.90
16728;DHT22;8482;54.396;18.590;2023-02-05T01:23:21;3.20;99.90
16728;DHT22;8482;54.396;18.590;2023-02-05T01:25:47;3.20;99.90
16728;DHT22;8482;54.396;18.590;2023-02-05T01:28:13;3.20;99.90
16728;DHT22;8482;54.396;18.590;2023-02-05T01:30:39;3.20;99.90
16728;DHT22;8482;54.396;18.590;2023-02-05T01:33:05;3.20;99.90
16728;DHT22;8482;54.396;18.590;2023-02-05T01:35:32;3.20;99.90
16728;DHT22;8482;54.396;18.590;2023-02-05T01:37:57;3.20;99.90
16728;DHT22;8482;54.396;18.590;2023-02-05T01:40:23;3.20;99.90
16728;DHT22;8482;54.396;18.590;2023-02-05T01:42:49;3.20;99.90
16728;DHT22;8482;54.396;18.590;2023-02-05T01:47:48;3.20;99.90
16728;DHT22;8482;54.396;18.590;2023-02-05T01:50:40;3.20;99.90
16728;DHT22;8482;54.396;18.590;2023-02-05T01:53:16;3.20;99.90
16728;DHT22;8482;54.396;18.590;2023-02-05T01:55:57;3.20;99.90
16728;DHT22;8482;54.396;18.590;2023-02-05T01:58:29;3.20;99.90
16728;DHT22;8482;54.396;18.590;2023-02-05T02:00:58;3.20;99.90
16728;DHT22;8482;54.396;18.590;2023-02-05T02:03:25;3.20;99.90
16728;DHT22;8482;54.396;18.590;2023-02-05T02:05:55;3.20;99.90
16728;DHT22;8482;54.396;18.590;2023-02-05T02:08:22;3.20;99.90
16728;DHT22;8482;54.396;18.590;2023-02-05T02:10:49;3.20;99.90
16728;DHT22;8482;54.396;18.590;2023-02-05T02:13:17;3.20;99.90
16728;DHT22;8482;54.396;18.590;2023-02-05T02:15:46;3.20;99.90
16728;DHT22;8482;54.396;18.590;2023-02-05T02:18:15;3.20;99.90
16728;DHT22;8482;54.396;18.590;2023-02-05T02:30:00;3.00;99.90
16728;DHT22;8482;54.396;18.590;2023-02-05T02:32:57;3.00;99.90
16728;DHT22;8482;54.396;18.590;2023-02-05T02:35:53;3.00;99.90
16728;DHT22;8482;54.396;18.590;2023-02-05T02:38:31;2.90;99.90
16728;DHT22;8482;54.396;18.590;2023-02-05T02:41:09;2.90;99.90
16728;DHT22;8482;54.396;18.590;2023-02-05T02:43:49;2.80;99.90
16728;DHT22;8482;54.396;18.590;2023-02-05T02:46:30;2.80;99.90
16728;DHT22;8482;54.396;18.590;2023-02-05T02:49:06;2.80;99.90
16728;DHT22;8482;54.396;18.590;2023-02-05T02:51:38;2.70;99.90
16728;DHT22;8482;54.396;18.590;2023-02-05T02:54:11;2.70;99.90
16728;DHT22;8482;54.396;18.590;2023-02-05T02:56:41;2.70;99.90
16728;DHT22;8482;54.396;18.590;2023-02-05T02:59:12;2.60;99.90
16728;DHT22;8482;54.396;18.590;2023-02-05T03:01:42;2.60;99.90
16728;DHT22;8482;54.396;18.590;2023-02-05T03:04:21;2.60;99.90
16728;DHT22;8482;54.396;18.590;2023-02-05T03:06:52;2.50;99.90
16728;DHT22;8482;54.396;18.590;2023-02-05T03:09:25;2.50;99.90
16728;DHT22;8482;54.396;18.590;2023-02-05T03:11:59;2.50;99.90
16728;DHT22;8482;54.396;18.590;2023-02-05T03:14:25;2.40;99.90
16728;DHT22;8482;54.396;18.590;2023-02-05T03:16:52;2.40;99.90
16728;DHT22;8482;54.396;18.590;2023-02-05T03:19:18;2.40;99.90
16728;DHT22;8482;54.396;18.590;2023-02-05T03:21:49;2.40;99.90
16728;DHT22;8482;54.396;18.590;2023-02-05T03:24:19;2.30;99.90
16728;DHT22;8482;54.396;18.590;2023-02-05T03:26:45;2.30;99.90
16728;DHT22;8482;54.396;18.590;2023-02-05T03:29:13;2.30;99.90
16728;DHT22;8482;54.396;18.590;2023-02-05T03:32:04;2.20;99.90
16728;DHT22;8482;54.396;18.590;2023-02-05T03:38:08;2.10;99.90
16728;DHT22;8482;54.396;18.590;2023-02-05T03:41:19;2.20;99.90
16728;DHT22;8482;54.396;18.590;2023-02-05T03:47:48;2.20;99.90
16728;DHT22;8482;54.396;18.590;2023-02-05T03:53:46;2.20;99.90
16728;DHT22;8482;54.396;18.590;2023-02-05T03:56:01;2.10;99.90
16728;DHT22;8482;54.396;18.590;2023-02-05T03:58:41;2.10;99.90
16728;DHT22;8482;54.396;18.590;2023-02-05T04:01:11;2.10;99.90
16728;DHT22;8482;54.396;18.590;2023-02-05T04:03:38;2.00;99.90
16728;DHT22;8482;54.396;18.590;2023-02-05T04:06:06;2.00;99.90
16728;DHT22;8482;54.396;18.590;2023-02-05T04:08:32;2.00;99.90
16728;DHT22;8482;54.396;18.590;2023-02-05T04:10:58;1.90;99.90
16728;DHT22;8482;54.396;18.590;2023-02-05T04:13:23;1.90;99.90
16728;DHT22;8482;54.396;18.590;2023-02-05T04:15:50;1.90;99.90
16728;DHT22;8482;54.396;18.590;2023-02-05T04:18:16;1.90;99.90
16728;DHT22;8482;54.396;18.590;2023-02-05T04:20:43;1.90;99.90
16728;DHT22;8482;54.396;18.590;2023-02-05T04:23:09;1.80;99.90
16728;DHT22;8482;54.396;18.590;2023-02-05T04:25:37;1.80;99.90
16728;DHT22;8482;54.396;18.590;2023-02-05T04:28:04;1.70;99.90
16728;DHT22;8482;54.396;18.590;2023-02-05T04:30:32;1.70;99.90
16728;DHT22;8482;54.396;18.590;2023-02-05T04:32:58;1.60;99.90
16728;DHT22;8482;54.396;18.590;2023-02-05T04:35:24;1.60;99.90
16728;DHT22;8482;54.396;18.590;2023-02-05T04:37:50;1.50;99.90
16728;DHT22;8482;54.396;18.590;2023-02-05T04:40:16;1.50;99.90
16728;DHT22;8482;54.396;18.590;2023-02-05T04:42:42;1.40;99.90
16728;DHT22;8482;54.396;18.590;2023-02-05T04:45:08;1.40;99.90
16728;DHT22;8482;54.396;18.590;2023-02-05T04:47:34;1.40;99.90
16728;DHT22;8482;54.396;18.590;2023-02-05T04:50:00;1.30;99.90
16728;DHT22;8482;54.396;18.590;2023-02-05T04:52:27;1.30;99.90
16728;DHT22;8482;54.396;18.590;2023-02-05T04:54:53;1.20;99.90
16728;DHT22;8482;54.396;18.590;2023-02-05T04:57:19;1.20;99.90
16728;DHT22;8482;54.396;18.590;2023-02-05T04:59:45;1.20;99.90
16728;DHT22;8482;54.396;18.590;2023-02-05T05:02:10;1.10;99.90
16728;DHT22;8482;54.396;18.590;2023-02-05T05:04:36;1.10;99.90
16728;DHT22;8482;54.396;18.590;2023-02-05T05:07:02;1.10;99.90
16728;DHT22;8482;54.396;18.590;2023-02-05T05:09:28;1.00;99.90
16728;DHT22;8482;54.396;18.590;2023-02-05T05:11:54;1.00;99.90
16728;DHT22;8482;54.396;18.590;2023-02-05T05:14:23;1.00;99.90
16728;DHT22;8482;54.396;18.590;2023-02-05T05:16:49;1.00;99.90
16728;DHT22;8482;54.396;18.590;2023-02-05T05:19:15;0.90;99.90
16728;DHT22;8482;54.396;18.590;2023-02-05T05:21:41;0.90;99.90
16728;DHT22;8482;54.396;18.590;2023-02-05T05:24:07;0.80;99.90
16728;DHT22;8482;54.396;18.590;2023-02-05T05:26:33;0.80;99.90
16728;DHT22;8482;54.396;18.590;2023-02-05T05:28:59;0.80;99.90
16728;DHT22;8482;54.396;18.590;2023-02-05T05:31:25;0.80;99.90
16728;DHT22;8482;54.396;18.590;2023-02-05T05:33:51;0.80;99.90
16728;DHT22;8482;54.396;18.590;2023-02-05T05:36:17;0.70;99.90
16728;DHT22;8482;54.396;18.590;2023-02-05T05:38:44;0.80;99.90
16728;DHT22;8482;54.396;18.590;2023-02-05T05:41:21;0.70;99.90
16728;DHT22;8482;54.396;18.590;2023-02-05T05:44:07;0.70;99.90
16728;DHT22;8482;54.396;18.590;2023-02-05T05:46:35;0.70;99.90
16728;DHT22;8482;54.396;18.590;2023-02-05T05:49:02;0.70;99.90
16728;DHT22;8482;54.396;18.590;2023-02-05T05:51:29;0.70;99.90
16728;DHT22;8482;54.396;18.590;2023-02-05T05:53:56;0.70;99.90
16728;DHT22;8482;54.396;18.590;2023-02-05T05:56:22;0.70;99.90
16728;DHT22;8482;54.396;18.590;2023-02-05T05:58:49;0.70;99.90
16728;DHT22;8482;54.396;18.590;2023-02-05T06:01:17;0.70;99.90
16728;DHT22;8482;54.396;18.590;2023-02-05T06:03:44;0.70;99.90
16728;DHT22;8482;54.396;18.590;2023-02-05T06:06:11;0.70;99.90
16728;DHT22;8482;54.396;18.590;2023-02-05T06:08:37;0.70;99.90
16728;DHT22;8482;54.396;18.590;2023-02-05T06:11:03;0.80;99.90
16728;DHT22;8482;54.396;18.590;2023-02-05T06:13:29;0.80;99.90
16728;DHT22;8482;54.396;18.590;2023-02-05T06:15:55;0.80;99.90
16728;DHT22;8482;54.396;18.590;2023-02-05T06:18:21;0.80;99.90
16728;DHT22;8482;54.396;18.590;2023-02-05T06:20:47;0.90;99.90
16728;DHT22;8482;54.396;18.590;2023-02-05T06:23:13;0.90;99.90
16728;DHT22;8482;54.396;18.590;2023-02-05T06:25:39;1.00;99.90
16728;DHT22;8482;54.396;18.590;2023-02-05T06:28:05;1.00;99.90
16728;DHT22;8482;54.396;18.590;2023-02-05T06:30:31;1.10;99.90
16728;DHT22;8482;54.396;18.590;2023-02-05T06:32:57;1.10;99.90
16728;DHT22;8482;54.396;18.590;2023-02-05T06:35:23;1.20;99.90
16728;DHT22;8482;54.396;18.590;2023-02-05T06:37:49;1.20;99.90
16728;DHT22;8482;54.396;18.590;2023-02-05T06:40:16;1.30;99.90
16728;DHT22;8482;54.396;18.590;2023-02-05T06:42:47;1.40;99.90
16728;DHT22;8482;54.396;18.590;2023-02-05T06:45:13;1.40;99.90
16728;DHT22;8482;54.396;18.590;2023-02-05T06:47:39;1.50;99.90
16728;DHT22;8482;54.396;18.590;2023-02-05T06:50:05;1.60;99.90
16728;DHT22;8482;54.396;18.590;2023-02-05T06:52:32;1.60;99.90
16728;DHT22;8482;54.396;18.590;2023-02-05T06:54:58;1.60;99.90
16728;DHT22;8482;54.396;18.590;2023-02-05T06:57:23;1.70;99.90
16728;DHT22;8482;54.396;18.590;2023-02-05T06:59:49;1.70;99.90
16728;DHT22;8482;54.396;18.590;2023-02-05T07:02:15;1.70;99.90
16728;DHT22;8482;54.396;18.590;2023-02-05T07:04:41;1.70;99.90
16728;DHT22;8482;54.396;18.590;2023-02-05T07:07:07;1.80;99.90
16728;DHT22;8482;54.396;18.590;2023-02-05T07:09:33;1.80;99.90
16728;DHT22;8482;54.396;18.590;2023-02-05T07:11:59;1.90;99.90
16728;DHT22;8482;54.396;18.590;2023-02-05T07:14:24;1.90;99.90
16728;DHT22;8482;54.396;18.590;2023-02-05T07:16:50;1.90;99.90
16728;DHT22;8482;54.396;18.590;2023-02-05T07:19:16;1.90;99.90
16728;DHT22;8482;54.396;18.590;2023-02-05T07:21:42;2.00;99.90
16728;DHT22;8482;54.396;18.590;2023-02-05T07:24:08;2.00;99.90
16728;DHT22;8482;54.396;18.590;2023-02-05T07:26:34;2.10;99.90
16728;DHT22;8482;54.396;18.590;2023-02-05T07:29:01;2.10;99.90
16728;DHT22;8482;54.396;18.590;2023-02-05T07:31:27;2.10;99.90
16728;DHT22;8482;54.396;18.590;2023-02-05T07:33:53;2.10;99.90
16728;DHT22;8482;54.396;18.590;2023-02-05T07:36:19;2.10;99.90
16728;DHT22;8482;54.396;18.590;2023-02-05T07:38:45;2.20;99.90
16728;DHT22;8482;54.396;18.590;2023-02-05T07:41:13;2.20;99.90
16728;DHT22;8482;54.396;18.590;2023-02-05T07:43:41;2.20;99.90
16728;DHT22;8482;54.396;18.590;2023-02-05T07:46:12;2.30;99.90
16728;DHT22;8482;54.396;18.590;2023-02-05T07:48:39;2.30;99.90
16728;DHT22;8482;54.396;18.590;2023-02-05T07:51:05;2.30;99.90
16728;DHT22;8482;54.396;18.590;2023-02-05T07:53:32;2.40;99.90
16728;DHT22;8482;54.396;18.590;2023-02-05T07:56:04;2.40;99.90
16728;DHT22;8482;54.396;18.590;2023-02-05T07:58:30;2.40;99.90
16728;DHT22;8482;54.396;18.590;2023-02-05T08:01:00;2.40;99.90
16728;DHT22;8482;54.396;18.590;2023-02-05T08:03:27;2.50;99.90
16728;DHT22;8482;54.396;18.590;2023-02-05T08:05:53;2.50;99.90
16728;DHT22;8482;54.396;18.590;2023-02-05T08:08:19;2.60;99.90
16728;DHT22;8482;54.396;18.590;2023-02-05T08:10:45;2.60;99.90
16728;DHT22;8482;54.396;18.590;2023-02-05T08:13:10;2.60;99.90
16728;DHT22;8482;54.396;18.590;2023-02-05T08:15:39;2.70;99.90
16728;DHT22;8482;54.396;18.590;2023-02-05T08:18:06;2.70;99.90
16728;DHT22;8482;54.396;18.590;2023-02-05T08:20:31;2.70;99.90
16728;DHT22;8482;54.396;18.590;2023-02-05T08:22:57;2.80;99.90
16728;DHT22;8482;54.396;18.590;2023-02-05T08:25:23;2.80;99.90
16728;DHT22;8482;54.396;18.590;2023-02-05T08:27:49;2.80;99.90
16728;DHT22;8482;54.396;18.590;2023-02-05T08:30:16;2.90;99.90
16728;DHT22;8482;54.396;18.590;2023-02-05T08:32:48;2.90;99.90
16728;DHT22;8482;54.396;18.590;2023-02-05T08:35:15;2.90;99.90
16728;DHT22;8482;54.396;18.590;2023-02-05T08:37:41;3.00;99.90
16728;DHT22;8482;54.396;18.590;2023-02-05T08:40:08;3.00;99.90
16728;DHT22;8482;54.396;18.590;2023-02-05T08:42:34;3.00;99.90
16728;DHT22;8482;54.396;18.590;2023-02-05T08:45:00;3.10;99.90
16728;DHT22;8482;54.396;18.590;2023-02-05T08:47:28;3.10;99.90
16728;DHT22;8482;54.396;18.590;2023-02-05T08:49:54;3.20;99.90
16728;DHT22;8482;54.396;18.590;2023-02-05T08:52:20;3.20;99.90
16728;DHT22;8482;54.396;18.590;2023-02-05T08:54:46;3.20;99.90
16728;DHT22;8482;54.396;18.590;2023-02-05T08:57:12;3.30;99.90
16728;DHT22;8482;54.396;18.590;2023-02-05T08:59:38;3.30;99.90
16728;DHT22;8482;54.396;18.590;2023-02-05T09:02:04;3.30;99.90
16728;DHT22;8482;54.396;18.590;2023-02-05T09:04:30;3.30;99.90
16728;DHT22;8482;54.396;18.590;2023-02-05T09:06:56;3.40;99.90
16728;DHT22;8482;54.396;18.590;2023-02-05T09:09:22;3.40;99.90
16728;DHT22;8482;54.396;18.590;2023-02-05T09:11:48;3.50;99.90
16728;DHT22;8482;54.396;18.590;2023-02-05T09:14:14;3.50;99.90
16728;DHT22;8482;54.396;18.590;2023-02-05T09:16:40;3.50;99.90
16728;DHT22;8482;54.396;18.590;2023-02-05T09:19:06;3.60;99.90
16728;DHT22;8482;54.396;18.590;2023-02-05T09:21:33;3.60;99.90
16728;DHT22;8482;54.396;18.590;2023-02-05T09:23:59;3.60;99.90
16728;DHT22;8482;54.396;18.590;2023-02-05T09:26:25;3.70;99.90
16728;DHT22;8482;54.396;18.590;2023-02-05T09:28:51;3.80;99.90
16728;DHT22;8482;54.396;18.590;2023-02-05T09:31:19;3.70;99.90
16728;DHT22;8482;54.396;18.590;2023-02-05T09:33:45;3.80;99.90
16728;DHT22;8482;54.396;18.590;2023-02-05T09:36:20;3.80;99.90
16728;DHT22;8482;54.396;18.590;2023-02-05T09:38:48;3.90;99.90
16728;DHT22;8482;54.396;18.590;2023-02-05T09:41:31;3.90;99.90
16728;DHT22;8482;54.396;18.590;2023-02-05T09:47:23;4.00;99.90
16728;DHT22;8482;54.396;18.590;2023-02-05T09:50:20;4.10;99.90
16728;DHT22;8482;54.396;18.590;2023-02-05T09:52:58;4.10;99.90
16728;DHT22;8482;54.396;18.590;2023-02-05T09:55:32;4.10;99.90
16728;DHT22;8482;54.396;18.590;2023-02-05T09:58:20;4.20;99.90
16728;DHT22;8482;54.396;18.590;2023-02-05T10:00:55;4.20;99.90
16728;DHT22;8482;54.396;18.590;2023-02-05T10:03:43;4.30;99.90
16728;DHT22;8482;54.396;18.590;2023-02-05T10:11:48;4.30;99.90
16728;DHT22;8482;54.396;18.590;2023-02-05T10:24:05;4.40;99.90
16728;DHT22;8482;54.396;18.590;2023-02-05T10:26:51;4.50;99.90
16728;DHT22;8482;54.396;18.590;2023-02-05T10:32:31;4.60;99.90
16728;DHT22;8482;54.396;18.590;2023-02-05T10:38:18;4.60;99.90
16728;DHT22;8482;54.396;18.590;2023-02-05T10:40:50;4.60;99.90
16728;DHT22;8482;54.396;18.590;2023-02-05T10:46:38;4.70;99.90
16728;DHT22;8482;54.396;18.590;2023-02-05T10:49:25;4.70;99.90
16728;DHT22;8482;54.396;18.590;2023-02-05T10:51:52;4.70;99.90
16728;DHT22;8482;54.396;18.590;2023-02-05T10:54:26;4.80;99.90
16728;DHT22;8482;54.396;18.590;2023-02-05T10:56:55;4.80;99.90
16728;DHT22;8482;54.396;18.590;2023-02-05T10:59:25;4.90;99.90
16728;DHT22;8482;54.396;18.590;2023-02-05T11:01:55;4.90;99.90
16728;DHT22;8482;54.396;18.590;2023-02-05T11:07:03;4.90;99.90
16728;DHT22;8482;54.396;18.590;2023-02-05T11:09:37;5.00;99.90
16728;DHT22;8482;54.396;18.590;2023-02-05T11:12:13;5.00;99.90
16728;DHT22;8482;54.396;18.590;2023-02-05T11:14:44;5.10;99.90
16728;DHT22;8482;54.396;18.590;2023-02-05T11:17:25;5.10;99.90
16728;DHT22;8482;54.396;18.590;2023-02-05T11:20:24;5.20;99.90
16728;DHT22;8482;54.396;18.590;2023-02-05T11:25:31;5.30;99.90
16728;DHT22;8482;54.396;18.590;2023-02-05T11:28:03;5.30;99.90
16728;DHT22;8482;54.396;18.590;2023-02-05T11:30:37;5.30;99.90
16728;DHT22;8482;54.396;18.590;2023-02-05T11:35:49;5.40;99.90
16728;DHT22;8482;54.396;18.590;2023-02-05T11:41:36;5.50;99.90
16728;DHT22;8482;54.396;18.590;2023-02-05T11:44:45;5.50;99.80
16728;DHT22;8482;54.396;18.590;2023-02-05T11:47:23;5.60;99.40
16728;DHT22;8482;54.396;18.590;2023-02-05T11:49:55;5.60;99.20
16728;DHT22;8482;54.396;18.590;2023-02-05T11:52:29;5.50;98.60
16728;DHT22;8482;54.396;18.590;2023-02-05T11:54:59;5.50;98.40
16728;DHT22;8482;54.396;18.590;2023-02-05T11:57:32;5.50;98.30
16728;DHT22;8482;54.396;18.590;2023-02-05T12:00:26;5.50;98.40
16728;DHT22;8482;54.396;18.590;2023-02-05T12:03:15;5.50;98.50
16728;DHT22;8482;54.396;18.590;2023-02-05T12:05:50;5.50;98.30
16728;DHT22;8482;54.396;18.590;2023-02-05T12:08:52;5.60;98.40
16728;DHT22;8482;54.396;18.590;2023-02-05T12:14:06;5.50;98.40
16728;DHT22;8482;54.396;18.590;2023-02-05T12:19:54;5.50;98.00
16728;DHT22;8482;54.396;18.590;2023-02-05T12:36:32;5.60;97.20
16728;DHT22;8482;54.396;18.590;2023-02-05T12:42:11;5.70;96.60
16728;DHT22;8482;54.396;18.590;2023-02-05T12:57:13;5.80;95.80
16728;DHT22;8482;54.396;18.590;2023-02-05T12:59:54;5.80;95.90
16728;DHT22;8482;54.396;18.590;2023-02-05T13:02:45;5.80;95.70
16728;DHT22;8482;54.396;18.590;2023-02-05T13:05:35;5.80;95.70
16728;DHT22;8482;54.396;18.590;2023-02-05T13:08:37;5.80;95.60
16728;DHT22;8482;54.396;18.590;2023-02-05T13:11:15;5.80;95.90
16728;DHT22;8482;54.396;18.590;2023-02-05T13:16:50;5.80;96.20
16728;DHT22;8482;54.396;18.590;2023-02-05T13:19:27;5.70;96.20
16728;DHT22;8482;54.396;18.590;2023-02-05T13:22:03;5.70;96.10
16728;DHT22;8482;54.396;18.590;2023-02-05T13:25:47;5.70;96.00
16728;DHT22;8482;54.396;18.590;2023-02-05T13:28:36;5.60;95.90
16728;DHT22;8482;54.396;18.590;2023-02-05T13:31:30;5.60;95.80
16728;DHT22;8482;54.396;18.590;2023-02-05T13:34:03;5.60;95.70
16728;DHT22;8482;54.396;18.590;2023-02-05T13:37:00;5.60;95.80
16728;DHT22;8482;54.396;18.590;2023-02-05T13:46:06;5.60;95.90
16728;DHT22;8482;54.396;18.590;2023-02-05T14:00:24;6.20;95.30
16728;DHT22;8482;54.396;18.590;2023-02-05T14:02:54;6.20;94.70
16728;DHT22;8482;54.396;18.590;2023-02-05T14:05:40;6.10;94.60
16728;DHT22;8482;54.396;18.590;2023-02-05T14:08:28;6.10;94.40
16728;DHT22;8482;54.396;18.590;2023-02-05T14:11:03;5.90;94.40
16728;DHT22;8482;54.396;18.590;2023-02-05T14:13:31;5.80;94.70
16728;DHT22;8482;54.396;18.590;2023-02-05T14:19:09;5.70;95.50
16728;DHT22;8482;54.396;18.590;2023-02-05T14:21:56;5.60;95.90
16728;DHT22;8482;54.396;18.590;2023-02-05T14:24:40;5.60;95.90
16728;DHT22;8482;54.396;18.590;2023-02-05T14:29:55;5.40;96.50
16728;DHT22;8482;54.396;18.590;2023-02-05T14:35:34;5.40;96.70
16728;DHT22;8482;54.396;18.590;2023-02-05T14:38:21;5.30;96.90
16728;DHT22;8482;54.396;18.590;2023-02-05T14:43:39;5.20;97.10
16728;DHT22;8482;54.396;18.590;2023-02-05T14:52:04;5.10;97.40
16728;DHT22;8482;54.396;18.590;2023-02-05T15:00:31;4.90;98.30
16728;DHT22;8482;54.396;18.590;2023-02-05T15:05:56;4.80;98.60
16728;DHT22;8482;54.396;18.590;2023-02-05T15:16:47;4.50;99.00
16728;DHT22;8482;54.396;18.590;2023-02-05T15:19:39;4.50;99.30
16728;DHT22;8482;54.396;18.590;2023-02-05T15:22:42;4.40;99.70
16728;DHT22;8482;54.396;18.590;2023-02-05T15:27:56;4.30;99.90
16728;DHT22;8482;54.396;18.590;2023-02-05T15:30:31;4.20;99.90
16728;DHT22;8482;54.396;18.590;2023-02-05T15:33:14;4.10;99.90
16728;DHT22;8482;54.396;18.590;2023-02-05T15:35:46;4.10;99.90
16728;DHT22;8482;54.396;18.590;2023-02-05T15:40:44;4.00;99.90
16728;DHT22;8482;54.396;18.590;2023-02-05T15:45:59;3.90;99.90
16728;DHT22;8482;54.396;18.590;2023-02-05T15:48:33;3.90;99.90
16728;DHT22;8482;54.396;18.590;2023-02-05T15:51:27;3.90;99.90
16728;DHT22;8482;54.396;18.590;2023-02-05T15:54:00;3.80;99.90
16728;DHT22;8482;54.396;18.590;2023-02-05T15:56:33;3.80;99.90
16728;DHT22;8482;54.396;18.590;2023-02-05T15:59:29;3.80;99.90
16728;DHT22;8482;54.396;18.590;2023-02-05T16:02:00;3.80;99.90
16728;DHT22;8482;54.396;18.590;2023-02-05T16:04:37;3.70;99.90
16728;DHT22;8482;54.396;18.590;2023-02-05T16:07:29;3.70;99.90
16728;DHT22;8482;54.396;18.590;2023-02-05T16:10:12;3.70;99.90
16728;DHT22;8482;54.396;18.590;2023-02-05T16:13:04;3.70;99.90
16728;DHT22;8482;54.396;18.590;2023-02-05T16:15:37;3.70;99.90
16728;DHT22;8482;54.396;18.590;2023-02-05T16:18:13;3.70;99.90
16728;DHT22;8482;54.396;18.590;2023-02-05T16:21:04;3.70;99.90
16728;DHT22;8482;54.396;18.590;2023-02-05T16:24:05;3.70;99.90
16728;DHT22;8482;54.396;18.590;2023-02-05T16:26:45;3.60;99.90
16728;DHT22;8482;54.396;18.590;2023-02-05T16:32:39;3.60;99.90
16728;DHT22;8482;54.396;18.590;2023-02-05T16:35:01;3.60;99.90
16728;DHT22;8482;54.396;18.590;2023-02-05T16:37:31;3.60;99.90
16728;DHT22;8482;54.396;18.590;2023-02-05T16:40:01;3.50;99.90
16728;DHT22;8482;54.396;18.590;2023-02-05T16:42:37;3.50;99.90
16728;DHT22;8482;54.396;18.590;2023-02-05T16:45:20;3.50;99.90
16728;DHT22;8482;54.396;18.590;2023-02-05T16:48:28;3.40;99.90
16728;DHT22;8482;54.396;18.590;2023-02-05T16:50:54;3.40;99.90
16728;DHT22;8482;54.396;18.590;2023-02-05T16:53:27;3.40;99.90
16728;DHT22;8482;54.396;18.590;2023-02-05T16:56:01;3.40;99.90
16728;DHT22;8482;54.396;18.590;2023-02-05T16:58:44;3.40;99.90
16728;DHT22;8482;54.396;18.590;2023-02-05T17:01:24;3.40;99.90
16728;DHT22;8482;54.396;18.590;2023-02-05T17:04:23;3.40;99.90
16728;DHT22;8482;54.396;18.590;2023-02-05T17:06:56;3.40;99.90
16728;DHT22;8482;54.396;18.590;2023-02-05T17:09:32;3.30;99.90
16728;DHT22;8482;54.396;18.590;2023-02-05T17:14:58;3.30;99.90
16728;DHT22;8482;54.396;18.590;2023-02-05T17:17:28;3.30;99.90
16728;DHT22;8482;54.396;18.590;2023-02-05T17:22:39;3.20;99.90
16728;DHT22;8482;54.396;18.590;2023-02-05T17:25:26;3.20;99.90
16728;DHT22;8482;54.396;18.590;2023-02-05T17:27:53;3.20;99.90
16728;DHT22;8482;54.396;18.590;2023-02-05T17:30:20;3.20;99.90
16728;DHT22;8482;54.396;18.590;2023-02-05T17:32:47;3.20;99.90
16728;DHT22;8482;54.396;18.590;2023-02-05T17:35:19;3.20;99.90
16728;DHT22;8482;54.396;18.590;2023-02-05T17:37:52;3.20;99.90
16728;DHT22;8482;54.396;18.590;2023-02-05T17:40:19;3.10;99.90
16728;DHT22;8482;54.396;18.590;2023-02-05T17:42:46;3.10;99.90
16728;DHT22;8482;54.396;18.590;2023-02-05T17:45:19;3.10;99.90
16728;DHT22;8482;54.396;18.590;2023-02-05T17:47:47;3.10;99.90
16728;DHT22;8482;54.396;18.590;2023-02-05T17:50:13;3.10;99.90
16728;DHT22;8482;54.396;18.590;2023-02-05T17:52:40;3.00;99.90
16728;DHT22;8482;54.396;18.590;2023-02-05T17:55:09;3.10;99.90
16728;DHT22;8482;54.396;18.590;2023-02-05T17:57:39;3.00;99.90
16728;DHT22;8482;54.396;18.590;2023-02-05T18:00:44;3.00;99.90
16728;DHT22;8482;54.396;18.590;2023-02-05T18:03:03;3.00;99.90
16728;DHT22;8482;54.396;18.590;2023-02-05T18:05:32;3.00;99.90
16728;DHT22;8482;54.396;18.590;2023-02-05T18:08:01;3.00;99.90
16728;DHT22;8482;54.396;18.590;2023-02-05T18:10:29;3.00;99.90
16728;DHT22;8482;54.396;18.590;2023-02-05T18:12:56;2.90;99.90
16728;DHT22;8482;54.396;18.590;2023-02-05T18:15:24;2.90;99.90
16728;DHT22;8482;54.396;18.590;2023-02-05T18:17:51;2.90;99.90
16728;DHT22;8482;54.396;18.590;2023-02-05T18:20:18;2.90;99.90
16728;DHT22;8482;54.396;18.590;2023-02-05T18:22:46;2.90;99.90
16728;DHT22;8482;54.396;18.590;2023-02-05T18:25:13;2.90;99.90
16728;DHT22;8482;54.396;18.590;2023-02-05T18:27:39;2.90;99.90
16728;DHT22;8482;54.396;18.590;2023-02-05T18:30:06;2.90;99.90
16728;DHT22;8482;54.396;18.590;2023-02-05T18:32:32;2.90;99.90
16728;DHT22;8482;54.396;18.590;2023-02-05T18:34:58;2.90;99.90
16728;DHT22;8482;54.396;18.590;2023-02-05T18:37:24;2.90;99.90
16728;DHT22;8482;54.396;18.590;2023-02-05T18:39:50;2.90;99.90
16728;DHT22;8482;54.396;18.590;2023-02-05T18:42:16;2.90;99.90
16728;DHT22;8482;54.396;18.590;2023-02-05T18:44:42;2.90;99.90
16728;DHT22;8482;54.396;18.590;2023-02-05T18:47:08;2.90;99.90
16728;DHT22;8482;54.396;18.590;2023-02-05T18:49:36;2.90;99.90
16728;DHT22;8482;54.396;18.590;2023-02-05T18:52:02;2.90;99.90
16728;DHT22;8482;54.396;18.590;2023-02-05T18:54:29;2.90;99.90
16728;DHT22;8482;54.396;18.590;2023-02-05T18:56:55;2.90;99.90
16728;DHT22;8482;54.396;18.590;2023-02-05T18:59:22;2.80;99.90
16728;DHT22;8482;54.396;18.590;2023-02-05T19:01:51;2.80;99.90